sensor_id;sensor_type;location;lat;lon;timestamp;pressure;altitude;pressure_sealevel;temperature;humidity
31331;BME280;34067;39.548;-76.088;2023-05-01T00:01:06;98630.28;;;12.11;100.00
31331;BME280;34067;39.548;-76.088;2023-05-01T00:03:34;98622.91;;;12.17;100.00
31331;BME280;34067;39.548;-76.088;2023-05-01T00:06:03;98627.90;;;11.60;100.00
31331;BME280;34067;39.548;-76.088;2023-05-01T00:08:32;98632.32;;;12.16;100.00
31331;BME280;34067;39.548;-76.088;2023-05-01T00:11:03;98633.95;;;11.36;100.00
31331;BME280;34067;39.548;-76.088;2023-05-01T00:13:31;98623.33;;;11.96;100.00
31331;BME280;34067;39.548;-76.088;2023-05-01T00:15:59;98622.44;;;11.92;100.00
31331;BME280;34067;39.548;-76.088;2023-05-01T00:18:29;98650.02;;;11.35;100.00
31331;BME280;34067;39.548;-76.088;2023-05-01T00:20:57;98601.75;;;11.52;100.00
31331;BME280;34067;39.548;-76.088;2023-05-01T00:23:25;98610.27;;;11.27;100.00
31331;BME280;34067;39.548;-76.088;2023-05-01T00:25:53;98608.11;;;11.29;100.00
31331;BME280;34067;39.548;-76.088;2023-05-01T00:28:22;98599.81;;;11.48;100.00
31331;BME280;34067;39.548;-76.088;2023-05-01T00:30:49;98602.32;;;11.82;100.00
31331;BME280;34067;39.548;-76.088;2023-05-01T00:33:18;98605.11;;;11.44;100.00
31331;BME280;34067;39.548;-76.088;2023-05-01T00:35:46;98600.19;;;11.66;100.00
31331;BME280;34067;39.548;-76.088;2023-05-01T00:38:14;98618.61;;;10.83;100.00
31331;BME280;34067;39.548;-76.088;2023-05-01T00:40:42;98608.18;;;10.85;100.00
31331;BME280;34067;39.548;-76.088;2023-05-01T00:43:10;98613.01;;;11.50;100.00
31331;BME280;34067;39.548;-76.088;2023-05-01T00:45:40;98609.48;;;10.78;100.00
31331;BME280;34067;39.548;-76.088;2023-05-01T00:48:10;98610.09;;;11.33;100.00
31331;BME280;34067;39.548;-76.088;2023-05-01T00:50:38;98630.03;;;11.02;100.00
31331;BME280;34067;39.548;-76.088;2023-05-01T00:53:06;98638.76;;;11.67;100.00
31331;BME280;34067;39.548;-76.088;2023-05-01T00:55:34;98631.81;;;11.18;100.00
31331;BME280;34067;39.548;-76.088;2023-05-01T00:58:02;98642.15;;;11.06;100.00
31331;BME280;34067;39.548;-76.088;2023-05-01T01:00:31;98644.95;;;11.20;100.00
31331;BME280;34067;39.548;-76.088;2023-05-01T01:02:58;98658.98;;;11.50;100.00
31331;BME280;34067;39.548;-76.088;2023-05-01T01:05:29;98644.12;;;10.78;100.00
31331;BME280;34067;39.548;-76.088;2023-05-01T01:08:04;98694.56;;;10.41;100.00
31331;BME280;34067;39.548;-76.088;2023-05-01T01:10:50;98648.38;;;10.53;100.00
31331;BME280;34067;39.548;-76.088;2023-05-01T01:13:29;98662.84;;;10.64;100.00
31331;BME280;34067;39.548;-76.088;2023-05-01T01:16:08;98677.20;;;10.43;100.00
31331;BME280;34067;39.548;-76.088;2023-05-01T01:18:46;98682.32;;;10.16;100.00
31331;BME280;34067;39.548;-76.088;2023-05-01T01:21:22;98677.02;;;10.25;100.00
31331;BME280;34067;39.548;-76.088;2023-05-01T01:24:11;98675.67;;;10.02;100.00
31331;BME280;34067;39.548;-76.088;2023-05-01T01:27:18;98677.79;;;10.23;100.00
31331;BME280;34067;39.548;-76.088;2023-05-01T01:30:14;98682.96;;;11.00;100.00
31331;BME280;34067;39.548;-76.088;2023-05-01T01:33:13;98695.02;;;10.57;100.00
31331;BME280;34067;39.548;-76.088;2023-05-01T01:35:53;98709.95;;;10.63;100.00
31331;BME280;34067;39.548;-76.088;2023-05-01T01:38:27;98697.18;;;10.62;100.00
31331;BME280;34067;39.548;-76.088;2023-05-01T01:41:00;98716.71;;;10.28;100.00
31331;BME280;34067;39.548;-76.088;2023-05-01T01:43:36;98720.05;;;10.64;100.00
31331;BME280;34067;39.548;-76.088;2023-05-01T01:46:06;98727.25;;;10.81;100.00
31331;BME280;34067;39.548;-76.088;2023-05-01T01:48:38;98706.74;;;10.69;100.00
31331;BME280;34067;39.548;-76.088;2023-05-01T01:51:10;98731.16;;;10.77;100.00
31331;BME280;34067;39.548;-76.088;2023-05-01T01:53:40;98731.86;;;11.00;100.00
31331;BME280;34067;39.548;-76.088;2023-05-01T01:56:12;98741.06;;;10.62;100.00
31331;BME280;34067;39.548;-76.088;2023-05-01T01:58:42;98779.45;;;10.42;100.00
31331;BME280;34067;39.548;-76.088;2023-05-01T02:01:13;98735.44;;;10.77;100.00
31331;BME280;34067;39.548;-76.088;2023-05-01T02:03:43;98757.70;;;10.94;100.00
31331;BME280;34067;39.548;-76.088;2023-05-01T02:06:13;98766.69;;;10.54;100.00
31331;BME280;34067;39.548;-76.088;2023-05-01T02:08:43;98751.89;;;10.28;100.00
31331;BME280;34067;39.548;-76.088;2023-05-01T02:11:15;98774.38;;;11.47;100.00
31331;BME280;34067;39.548;-76.088;2023-05-01T02:13:45;98770.90;;;11.26;100.00
31331;BME280;34067;39.548;-76.088;2023-05-01T02:16:14;98776.46;;;10.93;100.00
31331;BME280;34067;39.548;-76.088;2023-05-01T02:18:44;98777.38;;;10.04;100.00
31331;BME280;34067;39.548;-76.088;2023-05-01T02:21:12;98814.91;;;8.80;100.00
31331;BME280;34067;39.548;-76.088;2023-05-01T02:23:42;98870.27;;;9.00;100.00
31331;BME280;34067;39.548;-76.088;2023-05-01T02:26:14;98864.52;;;8.32;100.00
31331;BME280;34067;39.548;-76.088;2023-05-01T02:28:43;98857.74;;;9.46;100.00
31331;BME280;34067;39.548;-76.088;2023-05-01T02:31:11;98834.29;;;9.13;100.00
31331;BME280;34067;39.548;-76.088;2023-05-01T02:33:39;98819.75;;;8.67;100.00
31331;BME280;34067;39.548;-76.088;2023-05-01T02:36:07;98822.67;;;9.00;100.00
31331;BME280;34067;39.548;-76.088;2023-05-01T02:38:35;98808.79;;;8.50;100.00
31331;BME280;34067;39.548;-76.088;2023-05-01T02:41:03;98826.79;;;9.00;100.00
31331;BME280;34067;39.548;-76.088;2023-05-01T02:43:33;98842.46;;;8.82;100.00
31331;BME280;34067;39.548;-76.088;2023-05-01T02:46:02;98820.29;;;9.88;100.00
31331;BME280;34067;39.548;-76.088;2023-05-01T02:48:32;98837.46;;;9.14;100.00
31331;BME280;34067;39.548;-76.088;2023-05-01T02:51:03;98825.69;;;9.67;100.00
31331;BME280;34067;39.548;-76.088;2023-05-01T02:53:32;98840.96;;;9.52;100.00
31331;BME280;34067;39.548;-76.088;2023-05-01T02:56:02;98856.16;;;9.19;95.46
31331;BME280;34067;39.548;-76.088;2023-05-01T02:58:31;98828.97;;;9.62;96.13
31331;BME280;34067;39.548;-76.088;2023-05-01T03:00:59;98838.24;;;9.40;94.93
31331;BME280;34067;39.548;-76.088;2023-05-01T03:03:27;98852.38;;;9.74;90.26
31331;BME280;34067;39.548;-76.088;2023-05-01T03:05:56;98855.96;;;9.21;90.63
31331;BME280;34067;39.548;-76.088;2023-05-01T03:08:23;98856.04;;;8.93;90.88
31331;BME280;34067;39.548;-76.088;2023-05-01T03:10:51;98851.89;;;9.33;88.31
31331;BME280;34067;39.548;-76.088;2023-05-01T03:13:20;98858.21;;;9.60;88.58
31331;BME280;34067;39.548;-76.088;2023-05-01T03:15:48;98866.28;;;8.66;88.19
31331;BME280;34067;39.548;-76.088;2023-05-01T03:18:15;98864.69;;;9.10;84.73
31331;BME280;34067;39.548;-76.088;2023-05-01T03:20:51;98865.92;;;8.90;84.78
31331;BME280;34067;39.548;-76.088;2023-05-01T03:23:19;98865.09;;;9.06;82.44
31331;BME280;34067;39.548;-76.088;2023-05-01T03:25:47;98864.98;;;9.58;78.40
31331;BME280;34067;39.548;-76.088;2023-05-01T03:28:15;98887.54;;;9.69;79.01
31331;BME280;34067;39.548;-76.088;2023-05-01T03:30:44;98886.48;;;9.24;76.74
31331;BME280;34067;39.548;-76.088;2023-05-01T03:33:12;98885.78;;;9.34;78.51
31331;BME280;34067;39.548;-76.088;2023-05-01T03:35:40;98871.82;;;9.45;78.98
31331;BME280;34067;39.548;-76.088;2023-05-01T03:38:08;98911.22;;;9.47;75.45
31331;BME280;34067;39.548;-76.088;2023-05-01T03:40:36;98879.75;;;9.48;78.10
31331;BME280;34067;39.548;-76.088;2023-05-01T03:43:04;98920.20;;;9.19;74.64
31331;BME280;34067;39.548;-76.088;2023-05-01T03:45:32;98919.19;;;8.82;77.16
31331;BME280;34067;39.548;-76.088;2023-05-01T03:48:00;98920.57;;;8.97;76.57
31331;BME280;34067;39.548;-76.088;2023-05-01T03:50:28;98928.86;;;9.81;73.91
31331;BME280;34067;39.548;-76.088;2023-05-01T03:52:56;98929.15;;;9.41;76.54
31331;BME280;34067;39.548;-76.088;2023-05-01T03:55:24;98928.42;;;8.76;74.51
31331;BME280;34067;39.548;-76.088;2023-05-01T03:57:53;98927.20;;;9.21;75.73
31331;BME280;34067;39.548;-76.088;2023-05-01T04:00:21;98948.13;;;9.20;75.11
31331;BME280;34067;39.548;-76.088;2023-05-01T04:02:49;98947.96;;;9.22;76.32
31331;BME280;34067;39.548;-76.088;2023-05-01T04:05:17;98946.02;;;8.98;76.17
31331;BME280;34067;39.548;-76.088;2023-05-01T04:07:45;98946.74;;;8.77;74.36
31331;BME280;34067;39.548;-76.088;2023-05-01T04:10:13;98936.48;;;9.04;76.20
31331;BME280;34067;39.548;-76.088;2023-05-01T04:12:41;98935.43;;;9.38;74.43
31331;BME280;34067;39.548;-76.088;2023-05-01T04:15:10;98930.24;;;9.24;72.88
31331;BME280;34067;39.548;-76.088;2023-05-01T04:17:39;98941.51;;;9.07;72.40
31331;BME280;34067;39.548;-76.088;2023-05-01T04:20:07;98933.76;;;8.95;72.65
31331;BME280;34067;39.548;-76.088;2023-05-01T04:22:36;98953.15;;;8.88;71.78
31331;BME280;34067;39.548;-76.088;2023-05-01T04:25:04;98942.34;;;9.18;73.58
31331;BME280;34067;39.548;-76.088;2023-05-01T04:27:32;98935.19;;;8.96;71.34
31331;BME280;34067;39.548;-76.088;2023-05-01T04:30:00;98944.02;;;8.78;70.18
31331;BME280;34067;39.548;-76.088;2023-05-01T04:32:28;98955.39;;;9.33;69.41
31331;BME280;34067;39.548;-76.088;2023-05-01T04:34:56;98968.47;;;9.26;70.47
31331;BME280;34067;39.548;-76.088;2023-05-01T04:37:24;98978.53;;;10.24;67.26
31331;BME280;34067;39.548;-76.088;2023-05-01T04:39:52;98986.35;;;9.95;64.62
31331;BME280;34067;39.548;-76.088;2023-05-01T04:42:20;98988.11;;;9.60;65.05
31331;BME280;34067;39.548;-76.088;2023-05-01T04:44:48;98978.62;;;8.88;66.20
31331;BME280;34067;39.548;-76.088;2023-05-01T04:47:16;98972.20;;;8.95;64.54
31331;BME280;34067;39.548;-76.088;2023-05-01T04:49:44;98990.10;;;8.64;65.36
31331;BME280;34067;39.548;-76.088;2023-05-01T04:52:12;98994.26;;;8.93;66.05
31331;BME280;34067;39.548;-76.088;2023-05-01T04:54:40;98985.83;;;8.32;65.35
31331;BME280;34067;39.548;-76.088;2023-05-01T04:57:09;98981.18;;;9.50;65.10
31331;BME280;34067;39.548;-76.088;2023-05-01T04:59:37;98979.95;;;9.16;64.73
31331;BME280;34067;39.548;-76.088;2023-05-01T05:03:10;98974.68;;;9.00;64.53
31331;BME280;34067;39.548;-76.088;2023-05-01T05:05:38;98971.46;;;9.08;64.23
31331;BME280;34067;39.548;-76.088;2023-05-01T05:08:06;98980.16;;;9.20;64.35
31331;BME280;34067;39.548;-76.088;2023-05-01T05:10:34;98984.04;;;8.22;68.26
31331;BME280;34067;39.548;-76.088;2023-05-01T05:13:02;99006.54;;;8.76;63.86
31331;BME280;34067;39.548;-76.088;2023-05-01T05:15:30;98999.19;;;8.49;66.09
31331;BME280;34067;39.548;-76.088;2023-05-01T05:17:59;99008.58;;;8.36;64.05
31331;BME280;34067;39.548;-76.088;2023-05-01T05:20:26;99004.67;;;8.88;63.56
31331;BME280;34067;39.548;-76.088;2023-05-01T05:22:54;98988.15;;;9.29;63.18
31331;BME280;34067;39.548;-76.088;2023-05-01T05:25:24;98991.97;;;8.94;63.18
31331;BME280;34067;39.548;-76.088;2023-05-01T05:27:52;99005.04;;;8.88;61.59
31331;BME280;34067;39.548;-76.088;2023-05-01T05:30:20;99004.08;;;9.17;62.16
31331;BME280;34067;39.548;-76.088;2023-05-01T05:32:48;99004.48;;;9.61;60.67
31331;BME280;34067;39.548;-76.088;2023-05-01T05:35:16;98996.21;;;10.15;60.15
31331;BME280;34067;39.548;-76.088;2023-05-01T05:37:44;98982.54;;;9.58;60.54
31331;BME280;34067;39.548;-76.088;2023-05-01T05:40:13;98981.43;;;9.48;60.64
31331;BME280;34067;39.548;-76.088;2023-05-01T05:42:41;98963.60;;;9.38;59.94
31331;BME280;34067;39.548;-76.088;2023-05-01T05:45:10;98931.36;;;9.48;58.86
31331;BME280;34067;39.548;-76.088;2023-05-01T05:47:37;98903.98;;;9.51;59.29
31331;BME280;34067;39.548;-76.088;2023-05-01T05:50:06;98900.44;;;10.66;58.13
31331;BME280;34067;39.548;-76.088;2023-05-01T05:52:34;98930.19;;;9.49;57.87
31331;BME280;34067;39.548;-76.088;2023-05-01T05:55:03;98951.97;;;9.25;59.23
31331;BME280;34067;39.548;-76.088;2023-05-01T05:57:31;98967.92;;;9.32;61.16
31331;BME280;34067;39.548;-76.088;2023-05-01T05:59:59;98977.31;;;10.00;59.52
31331;BME280;34067;39.548;-76.088;2023-05-01T06:02:27;98986.13;;;10.32;57.47
31331;BME280;34067;39.548;-76.088;2023-05-01T06:04:55;98990.36;;;9.82;57.64
31331;BME280;34067;39.548;-76.088;2023-05-01T06:07:23;98997.46;;;10.35;58.28
31331;BME280;34067;39.548;-76.088;2023-05-01T06:09:51;98995.46;;;10.70;57.34
31331;BME280;34067;39.548;-76.088;2023-05-01T06:12:19;98997.44;;;11.08;56.04
31331;BME280;34067;39.548;-76.088;2023-05-01T06:14:47;99002.26;;;11.00;56.06
31331;BME280;34067;39.548;-76.088;2023-05-01T06:17:16;99015.54;;;10.48;56.14
31331;BME280;34067;39.548;-76.088;2023-05-01T06:19:44;99034.54;;;10.07;57.61
31331;BME280;34067;39.548;-76.088;2023-05-01T06:22:12;99054.96;;;10.29;58.51
31331;BME280;34067;39.548;-76.088;2023-05-01T06:24:40;99060.76;;;10.34;58.57
31331;BME280;34067;39.548;-76.088;2023-05-01T06:27:08;99066.25;;;10.41;58.54
31331;BME280;34067;39.548;-76.088;2023-05-01T06:29:36;99082.76;;;10.11;59.68
31331;BME280;34067;39.548;-76.088;2023-05-01T06:32:05;99088.28;;;10.04;58.36
31331;BME280;34067;39.548;-76.088;2023-05-01T06:34:33;99081.25;;;10.73;58.34
31331;BME280;34067;39.548;-76.088;2023-05-01T06:37:01;99077.66;;;10.41;58.55
31331;BME280;34067;39.548;-76.088;2023-05-01T06:39:29;99085.91;;;10.92;57.95
31331;BME280;34067;39.548;-76.088;2023-05-01T06:41:56;99092.95;;;11.67;57.62
31331;BME280;34067;39.548;-76.088;2023-05-01T06:44:24;99086.58;;;10.85;57.28
31331;BME280;34067;39.548;-76.088;2023-05-01T06:46:52;99090.15;;;11.06;56.87
31331;BME280;34067;39.548;-76.088;2023-05-01T06:49:21;99111.38;;;11.60;56.00
31331;BME280;34067;39.548;-76.088;2023-05-01T06:51:49;99140.09;;;12.37;55.30
31331;BME280;34067;39.548;-76.088;2023-05-01T06:54:17;99160.59;;;11.58;55.61
31331;BME280;34067;39.548;-76.088;2023-05-01T06:56:45;99154.46;;;11.80;55.03
31331;BME280;34067;39.548;-76.088;2023-05-01T06:59:13;99131.03;;;11.29;56.35
31331;BME280;34067;39.548;-76.088;2023-05-01T07:01:41;99131.14;;;11.29;56.08
31331;BME280;34067;39.548;-76.088;2023-05-01T07:04:09;99147.65;;;10.61;57.02
31331;BME280;34067;39.548;-76.088;2023-05-01T07:06:38;99154.19;;;10.86;56.86
31331;BME280;34067;39.548;-76.088;2023-05-01T07:09:06;99144.60;;;10.52;58.34
31331;BME280;34067;39.548;-76.088;2023-05-01T07:11:34;99119.50;;;11.23;58.28
31331;BME280;34067;39.548;-76.088;2023-05-01T07:14:02;99116.19;;;10.86;58.36
31331;BME280;34067;39.548;-76.088;2023-05-01T07:16:30;99131.80;;;11.61;57.50
31331;BME280;34067;39.548;-76.088;2023-05-01T07:18:58;99143.94;;;10.43;58.04
31331;BME280;34067;39.548;-76.088;2023-05-01T07:21:26;99148.17;;;10.33;58.14
31331;BME280;34067;39.548;-76.088;2023-05-01T07:23:55;99154.35;;;10.86;57.57
31331;BME280;34067;39.548;-76.088;2023-05-01T07:26:24;99149.61;;;10.95;57.53
31331;BME280;34067;39.548;-76.088;2023-05-01T07:28:53;99134.82;;;11.86;57.28
31331;BME280;34067;39.548;-76.088;2023-05-01T07:31:21;99134.14;;;10.47;58.23
31331;BME280;34067;39.548;-76.088;2023-05-01T07:33:49;99152.33;;;10.13;58.94
31331;BME280;34067;39.548;-76.088;2023-05-01T07:36:17;99155.39;;;10.10;59.01
31331;BME280;34067;39.548;-76.088;2023-05-01T07:38:46;99162.62;;;11.33;57.81
31331;BME280;34067;39.548;-76.088;2023-05-01T07:41:15;99169.88;;;10.44;58.85
31331;BME280;34067;39.548;-76.088;2023-05-01T07:43:42;99187.22;;;11.16;58.79
31331;BME280;34067;39.548;-76.088;2023-05-01T07:46:10;99189.27;;;10.92;59.09
31331;BME280;34067;39.548;-76.088;2023-05-01T07:48:39;99185.33;;;10.99;58.51
31331;BME280;34067;39.548;-76.088;2023-05-01T07:51:07;99192.36;;;10.25;58.50
31331;BME280;34067;39.548;-76.088;2023-05-01T07:53:35;99199.80;;;8.97;60.02
31331;BME280;34067;39.548;-76.088;2023-05-01T07:56:05;99196.83;;;10.83;59.17
31331;BME280;34067;39.548;-76.088;2023-05-01T07:58:33;99208.81;;;10.53;58.39
31331;BME280;34067;39.548;-76.088;2023-05-01T08:01:01;99217.70;;;10.27;59.06
31331;BME280;34067;39.548;-76.088;2023-05-01T08:03:29;99224.44;;;10.17;57.68
31331;BME280;34067;39.548;-76.088;2023-05-01T08:05:58;99230.71;;;8.99;59.02
31331;BME280;34067;39.548;-76.088;2023-05-01T08:08:26;99231.65;;;10.92;56.57
31331;BME280;34067;39.548;-76.088;2023-05-01T08:10:54;99234.62;;;10.69;55.85
31331;BME280;34067;39.548;-76.088;2023-05-01T08:13:22;99239.47;;;10.18;56.99
31331;BME280;34067;39.548;-76.088;2023-05-01T08:15:50;99238.41;;;11.19;56.34
31331;BME280;34067;39.548;-76.088;2023-05-01T08:18:18;99241.94;;;10.87;55.91
31331;BME280;34067;39.548;-76.088;2023-05-01T08:20:47;99242.69;;;10.87;55.42
31331;BME280;34067;39.548;-76.088;2023-05-01T08:23:15;99252.02;;;11.25;55.87
31331;BME280;34067;39.548;-76.088;2023-05-01T08:25:43;99256.08;;;10.86;54.39
31331;BME280;34067;39.548;-76.088;2023-05-01T08:28:11;99257.71;;;11.12;54.80
31331;BME280;34067;39.548;-76.088;2023-05-01T08:30:39;99267.01;;;10.30;55.68
31331;BME280;34067;39.548;-76.088;2023-05-01T08:33:07;99270.80;;;10.22;56.10
31331;BME280;34067;39.548;-76.088;2023-05-01T08:35:35;99269.01;;;11.09;55.09
31331;BME280;34067;39.548;-76.088;2023-05-01T08:38:03;99271.44;;;10.25;55.24
31331;BME280;34067;39.548;-76.088;2023-05-01T08:40:35;99272.10;;;10.02;55.83
31331;BME280;34067;39.548;-76.088;2023-05-01T08:43:04;99271.08;;;11.22;54.42
31331;BME280;34067;39.548;-76.088;2023-05-01T08:45:32;99273.06;;;10.23;55.05
31331;BME280;34067;39.548;-76.088;2023-05-01T08:48:04;99274.38;;;10.83;56.29
31331;BME280;34067;39.548;-76.088;2023-05-01T08:50:33;99278.31;;;9.72;56.50
31331;BME280;34067;39.548;-76.088;2023-05-01T08:53:02;99274.55;;;9.83;55.68
31331;BME280;34067;39.548;-76.088;2023-05-01T08:55:31;99276.19;;;11.51;55.45
31331;BME280;34067;39.548;-76.088;2023-05-01T08:58:01;99278.90;;;10.99;55.65
31331;BME280;34067;39.548;-76.088;2023-05-01T09:00:30;99281.32;;;9.02;57.90
31331;BME280;34067;39.548;-76.088;2023-05-01T09:03:00;99277.84;;;10.32;56.85
31331;BME280;34067;39.548;-76.088;2023-05-01T09:05:31;99281.42;;;9.38;58.26
31331;BME280;34067;39.548;-76.088;2023-05-01T09:08:00;99285.16;;;9.71;57.62
31331;BME280;34067;39.548;-76.088;2023-05-01T09:10:29;99287.35;;;9.05;57.78
31331;BME280;34067;39.548;-76.088;2023-05-01T09:12:59;99290.95;;;9.31;58.31
31331;BME280;34067;39.548;-76.088;2023-05-01T09:15:28;99294.16;;;9.13;58.68
31331;BME280;34067;39.548;-76.088;2023-05-01T09:17:58;99294.39;;;8.96;58.57
31331;BME280;34067;39.548;-76.088;2023-05-01T09:20:26;99287.64;;;9.62;57.58
31331;BME280;34067;39.548;-76.088;2023-05-01T09:22:55;99287.65;;;9.50;56.48
31331;BME280;34067;39.548;-76.088;2023-05-01T09:25:23;99288.25;;;9.20;57.82
31331;BME280;34067;39.548;-76.088;2023-05-01T09:27:51;99294.53;;;8.45;57.34
31331;BME280;34067;39.548;-76.088;2023-05-01T09:30:36;99293.52;;;8.90;56.70
31331;BME280;34067;39.548;-76.088;2023-05-01T09:33:05;99297.01;;;8.44;56.75
31331;BME280;34067;39.548;-76.088;2023-05-01T09:35:47;99302.84;;;8.96;57.49
31331;BME280;34067;39.548;-76.088;2023-05-01T09:38:18;99300.01;;;9.89;55.40
31331;BME280;34067;39.548;-76.088;2023-05-01T09:40:46;99300.11;;;9.20;54.78
31331;BME280;34067;39.548;-76.088;2023-05-01T09:43:23;99310.36;;;8.62;54.67
31331;BME280;34067;39.548;-76.088;2023-05-01T09:46:00;99318.94;;;9.24;55.40
31331;BME280;34067;39.548;-76.088;2023-05-01T09:48:28;99324.91;;;7.67;55.75
31331;BME280;34067;39.548;-76.088;2023-05-01T09:50:56;99328.67;;;7.95;55.35
31331;BME280;34067;39.548;-76.088;2023-05-01T09:53:36;99327.36;;;9.02;53.28
31331;BME280;34067;39.548;-76.088;2023-05-01T09:56:04;99326.87;;;7.50;54.40
31331;BME280;34067;39.548;-76.088;2023-05-01T09:58:32;99332.25;;;7.97;54.21
31331;BME280;34067;39.548;-76.088;2023-05-01T10:01:00;99329.76;;;8.17;54.19
31331;BME280;34067;39.548;-76.088;2023-05-01T10:03:30;99334.07;;;8.42;53.12
31331;BME280;34067;39.548;-76.088;2023-05-01T10:05:57;99338.49;;;7.66;55.09
31331;BME280;34067;39.548;-76.088;2023-05-01T10:08:26;99344.41;;;9.07;53.50
31331;BME280;34067;39.548;-76.088;2023-05-01T10:11:02;99343.93;;;8.46;53.08
31331;BME280;34067;39.548;-76.088;2023-05-01T10:13:31;99338.88;;;9.04;52.02
31331;BME280;34067;39.548;-76.088;2023-05-01T10:15:59;99343.80;;;9.09;51.64
31331;BME280;34067;39.548;-76.088;2023-05-01T10:18:28;99350.69;;;8.55;51.46
31331;BME280;34067;39.548;-76.088;2023-05-01T10:20:56;99351.23;;;9.54;50.83
31331;BME280;34067;39.548;-76.088;2023-05-01T10:23:24;99354.91;;;8.70;51.68
31331;BME280;34067;39.548;-76.088;2023-05-01T10:25:52;99360.87;;;9.20;50.66
31331;BME280;34067;39.548;-76.088;2023-05-01T10:28:21;99355.09;;;9.85;49.87
31331;BME280;34067;39.548;-76.088;2023-05-01T10:30:49;99358.69;;;9.59;50.11
31331;BME280;34067;39.548;-76.088;2023-05-01T10:33:17;99359.03;;;10.11;49.68
31331;BME280;34067;39.548;-76.088;2023-05-01T10:35:48;99371.97;;;9.80;50.56
31331;BME280;34067;39.548;-76.088;2023-05-01T10:38:24;99381.62;;;9.31;50.45
31331;BME280;34067;39.548;-76.088;2023-05-01T10:40:54;99388.35;;;10.61;49.04
31331;BME280;34067;39.548;-76.088;2023-05-01T10:43:23;99395.51;;;10.22;48.24
31331;BME280;34067;39.548;-76.088;2023-05-01T10:45:51;99401.44;;;9.88;49.07
31331;BME280;34067;39.548;-76.088;2023-05-01T10:49:08;99412.15;;;9.22;49.49
31331;BME280;34067;39.548;-76.088;2023-05-01T10:51:57;99416.00;;;8.89;50.42
31331;BME280;34067;39.548;-76.088;2023-05-01T10:54:25;99418.11;;;10.15;49.53
31331;BME280;34067;39.548;-76.088;2023-05-01T10:56:54;99421.93;;;10.08;49.41
31331;BME280;34067;39.548;-76.088;2023-05-01T10:59:23;99428.63;;;8.95;49.95
31331;BME280;34067;39.548;-76.088;2023-05-01T11:01:52;99440.73;;;9.69;49.68
31331;BME280;34067;39.548;-76.088;2023-05-01T11:04:51;99441.82;;;9.58;50.39
31331;BME280;34067;39.548;-76.088;2023-05-01T11:07:22;99442.87;;;10.50;49.83
31331;BME280;34067;39.548;-76.088;2023-05-01T11:09:51;99440.25;;;9.16;50.22
31331;BME280;34067;39.548;-76.088;2023-05-01T11:13:08;99443.24;;;9.71;50.62
31331;BME280;34067;39.548;-76.088;2023-05-01T11:15:36;99450.38;;;8.88;51.55
31331;BME280;34067;39.548;-76.088;2023-05-01T11:18:04;99449.71;;;8.93;52.20
31331;BME280;34067;39.548;-76.088;2023-05-01T11:20:48;99444.05;;;9.04;51.56
31331;BME280;34067;39.548;-76.088;2023-05-01T11:23:18;99446.35;;;10.16;50.33
31331;BME280;34067;39.548;-76.088;2023-05-01T11:25:47;99446.01;;;10.37;50.26
31331;BME280;34067;39.548;-76.088;2023-05-01T11:28:19;99450.85;;;9.76;51.16
31331;BME280;34067;39.548;-76.088;2023-05-01T11:30:47;99452.37;;;9.46;50.48
31331;BME280;34067;39.548;-76.088;2023-05-01T11:33:22;99459.05;;;9.80;51.08
31331;BME280;34067;39.548;-76.088;2023-05-01T11:35:57;99460.58;;;9.27;51.75
31331;BME280;34067;39.548;-76.088;2023-05-01T11:38:26;99462.52;;;9.38;52.14
31331;BME280;34067;39.548;-76.088;2023-05-01T11:40:57;99462.31;;;9.06;52.25
31331;BME280;34067;39.548;-76.088;2023-05-01T11:43:26;99458.18;;;10.83;51.03
31331;BME280;34067;39.548;-76.088;2023-05-01T11:45:54;99458.31;;;9.11;51.43
31331;BME280;34067;39.548;-76.088;2023-05-01T11:48:23;99457.58;;;10.74;49.64
31331;BME280;34067;39.548;-76.088;2023-05-01T11:50:51;99459.22;;;11.20;49.60
31331;BME280;34067;39.548;-76.088;2023-05-01T11:53:19;99466.95;;;10.00;50.43
31331;BME280;34067;39.548;-76.088;2023-05-01T11:55:47;99464.92;;;10.76;49.85
31331;BME280;34067;39.548;-76.088;2023-05-01T11:58:15;99466.64;;;10.99;49.52
31331;BME280;34067;39.548;-76.088;2023-05-01T12:00:43;99467.05;;;11.38;47.48
31331;BME280;34067;39.548;-76.088;2023-05-01T12:03:13;99470.59;;;10.82;47.28
31331;BME280;34067;39.548;-76.088;2023-05-01T12:05:42;99480.21;;;11.25;48.17
31331;BME280;34067;39.548;-76.088;2023-05-01T12:08:12;99485.42;;;9.45;48.60
31331;BME280;34067;39.548;-76.088;2023-05-01T12:10:42;99486.34;;;9.22;49.66
31331;BME280;34067;39.548;-76.088;2023-05-01T12:13:11;99492.17;;;9.32;49.33
31331;BME280;34067;39.548;-76.088;2023-05-01T12:15:43;99484.82;;;9.79;49.02
31331;BME280;34067;39.548;-76.088;2023-05-01T12:18:12;99483.74;;;9.69;48.54
31331;BME280;34067;39.548;-76.088;2023-05-01T12:20:41;99477.72;;;10.46;46.75
31331;BME280;34067;39.548;-76.088;2023-05-01T12:23:10;99484.23;;;10.36;48.01
31331;BME280;34067;39.548;-76.088;2023-05-01T12:25:39;99480.15;;;10.75;47.02
31331;BME280;34067;39.548;-76.088;2023-05-01T12:28:10;99493.09;;;10.32;47.14
31331;BME280;34067;39.548;-76.088;2023-05-01T12:30:38;99498.27;;;9.94;47.64
31331;BME280;34067;39.548;-76.088;2023-05-01T12:33:09;99498.32;;;9.70;46.59
31331;BME280;34067;39.548;-76.088;2023-05-01T12:35:38;99495.38;;;10.93;46.97
31331;BME280;34067;39.548;-76.088;2023-05-01T12:38:11;99503.01;;;10.76;46.37
31331;BME280;34067;39.548;-76.088;2023-05-01T12:40:48;99501.18;;;11.99;45.82
31331;BME280;34067;39.548;-76.088;2023-05-01T12:43:17;99499.82;;;11.03;45.80
31331;BME280;34067;39.548;-76.088;2023-05-01T12:45:45;99499.60;;;11.31;44.39
31331;BME280;34067;39.548;-76.088;2023-05-01T12:48:14;99501.74;;;11.44;43.90
31331;BME280;34067;39.548;-76.088;2023-05-01T12:50:42;99499.85;;;11.62;43.00
31331;BME280;34067;39.548;-76.088;2023-05-01T12:53:11;99502.72;;;9.41;44.22
31331;BME280;34067;39.548;-76.088;2023-05-01T12:55:43;99502.56;;;10.66;44.45
31331;BME280;34067;39.548;-76.088;2023-05-01T12:58:11;99504.23;;;12.23;43.32